Time;durP1;ratioP1;P1;durP2;ratioP2;P2;SDS_P1;SDS_P2;PMS_P1;PMS_P2;Temp;Humidity;BMP_temperature;BMP_pressure;BME280_temperature;BME280_humidity;BME280_pressure;Samples;Min_cycle;Max_cycle;Signal;HPM_P1;HPM_P2
2022/01/26 00:09:13;;;;;;;6.35;2.95;;;;;;;18.88;53.54;97942.59;10367254;28;20034;-24
2022/01/26 00:14:13;;;;;;;4.47;3.00;;;;;;;18.88;53.53;97946.00;10440850;28;20041;-23
2022/01/26 00:19:21;;;;;;;5.50;2.85;;;;;;;18.91;53.39;97940.16;10446867;28;20082;-23
2022/01/26 00:24:48;;;;;;;7.80;2.90;;;;;;;18.88;53.29;97935.00;10432294;28;20108;-24
2022/01/26 00:29:49;;;;;;;5.70;2.63;;;;;;;18.81;53.59;97923.88;10366626;28;20041;-23
2022/01/26 00:40:20;;;;;;;3.92;2.72;;;;;;;18.90;53.39;97936.72;10427578;28;20567;-23
2022/01/26 00:45:25;;;;;;;4.07;2.53;;;;;;;18.89;53.46;97936.69;10442011;28;20409;-24
2022/01/26 00:50:25;;;;;;;6.78;2.92;;;;;;;18.88;53.66;97919.75;10434971;28;20441;-23
2022/01/26 00:55:26;;;;;;;7.25;3.72;;;;;;;18.72;53.47;97894.94;10448143;28;20037;-24
2022/01/26 01:00:28;;;;;;;4.78;2.38;;;;;;;18.91;53.50;97923.22;10413514;28;20034;-23
2022/01/26 01:05:41;;;;;;;10.35;2.65;;;;;;;18.91;53.51;97930.00;10412726;28;20419;-23
2022/01/26 01:10:45;;;;;;;6.15;3.55;;;;;;;18.90;53.50;97933.31;10420856;28;20075;-24
2022/01/26 01:15:47;;;;;;;5.82;2.55;;;;;;;18.88;53.39;97935.00;10454472;28;20060;-25
2022/01/26 01:21:26;;;;;;;4.13;2.60;;;;;;;18.86;53.78;97929.91;10452779;28;20155;-23
2022/01/26 01:36:51;;;;;;;5.20;2.50;;;;;;;18.86;53.20;97918.91;10434836;28;20048;-24
2022/01/26 01:41:51;;;;;;;4.95;2.30;;;;;;;18.84;53.65;97920.56;10451951;28;20518;-23
2022/01/26 01:46:53;;;;;;;4.72;2.03;;;;;;;18.85;53.58;97928.19;10427344;28;20053;-24
2022/01/26 01:51:58;;;;;;;5.55;2.75;;;;;;;18.86;53.54;97927.38;10429463;28;20167;-23
2022/01/26 01:56:59;;;;;;;5.10;2.67;;;;;;;18.89;53.40;97926.53;10433523;28;20036;-24
2022/01/26 02:02:01;;;;;;;6.80;2.10;;;;;;;18.89;53.29;97932.50;10411501;28;20037;-23
2022/01/26 02:07:01;;;;;;;3.88;1.98;;;;;;;18.87;53.45;97930.75;10442282;28;20115;-23
2022/01/26 02:12:12;;;;;;;6.32;2.28;;;;;;;18.86;53.75;97924.84;10450953;28;20481;-23
2022/01/26 02:17:34;;;;;;;4.82;2.20;;;;;;;18.87;53.50;97928.22;10451940;28;20041;-23
2022/01/26 02:54:51;;;;;;;4.95;2.22;;;;;;;18.85;53.22;97919.72;10451071;28;20043;-23
2022/01/26 03:04:53;;;;;;;3.43;2.13;;;;;;;18.74;53.43;97906.84;10379939;28;20112;-23
2022/01/26 03:10:01;;;;;;;4.03;1.73;;;;;;;18.85;53.20;97922.25;10409385;28;20275;-23
2022/01/26 03:15:12;;;;;;;4.97;2.13;;;;;;;18.84;53.26;97918.03;10420615;28;20091;-23
2022/01/26 03:20:14;;;;;;;3.05;1.85;;;;;;;18.85;53.36;97922.25;10406961;28;20115;-23
2022/01/26 03:40:42;;;;;;;3.00;2.03;;;;;;;18.88;53.05;97919.75;10426743;28;20119;-23
2022/01/26 03:45:42;;;;;;;4.50;2.20;;;;;;;18.84;53.19;97923.09;10432886;28;20846;-25
2022/01/26 03:50:43;;;;;;;3.67;2.17;;;;;;;18.84;53.42;97923.09;10420963;28;20043;-24
2022/01/26 03:55:43;;;;;;;2.67;1.50;;;;;;;18.70;53.31;97904.22;10439463;28;20038;-23
2022/01/26 04:00:44;;;;;;;3.58;1.70;;;;;;;18.83;53.03;97926.47;10407553;28;20279;-23
2022/01/26 04:05:47;;;;;;;5.03;2.25;;;;;;;18.80;53.40;97927.25;10433713;28;20029;-23
2022/01/26 04:11:04;;;;;;;6.60;2.47;;;;;;;18.80;53.30;97913.69;10441942;28;20030;-24
2022/01/26 04:16:06;;;;;;;1.85;1.65;;;;;;;18.83;53.05;97916.31;10415369;28;20040;-24
2022/01/26 04:21:26;;;;;;;5.43;2.20;;;;;;;18.82;53.31;97914.59;10432639;28;20033;-22
2022/01/26 04:26:36;;;;;;;2.58;2.10;;;;;;;18.83;53.43;97921.38;10454807;28;20087;-23
2022/01/26 04:31:36;;;;;;;4.43;2.28;;;;;;;18.83;53.04;97931.53;10458040;28;20128;-23
2022/01/26 04:36:44;;;;;;;4.78;1.63;;;;;;;18.82;53.34;97935.75;10430730;28;20033;-23
2022/01/26 04:41:55;;;;;;;2.53;1.83;;;;;;;18.84;53.29;97933.25;10425549;28;20128;-24
2022/01/26 04:46:56;;;;;;;2.70;1.63;;;;;;;18.85;53.18;97937.50;10430788;28;20034;-24
2022/01/26 04:51:56;;;;;;;5.10;1.80;;;;;;;18.86;53.26;97940.06;10417775;28;20091;-23
2022/01/26 04:56:57;;;;;;;3.08;1.80;;;;;;;18.76;53.15;97920.41;10446819;28;20029;-22
2022/01/26 05:01:57;;;;;;;3.47;1.75;;;;;;;18.89;53.01;97934.16;10463061;28;20060;-24
2022/01/26 05:06:58;;;;;;;2.93;1.23;;;;;;;18.89;53.00;97937.56;10461767;28;20029;-24
2022/01/26 05:12:00;;;;;;;5.78;2.08;;;;;;;18.89;53.08;97940.09;10443338;28;20302;-24
2022/01/26 05:17:00;;;;;;;4.05;2.00;;;;;;;18.87;52.86;97934.16;10418588;28;20148;-23
2022/01/26 05:22:00;;;;;;;4.70;1.90;;;;;;;18.91;53.24;97932.53;10420434;28;20068;-24
2022/01/26 05:27:01;;;;;;;4.88;3.67;;;;;;;18.95;52.15;97941.88;10399983;28;20610;-23
2022/01/26 05:32:01;;;;;;;6.72;3.63;;;;;;;18.93;51.19;97938.47;10417257;28;20030;-23
2022/01/26 05:37:02;;;;;;;5.05;4.38;;;;;;;18.93;50.24;97925.78;10426324;28;20067;-23
2022/01/26 05:42:04;;;;;;;7.15;4.85;;;;;;;18.94;49.30;97935.09;10437836;28;20026;-24
2022/01/26 05:47:08;;;;;;;6.57;4.45;;;;;;;18.93;47.79;97933.41;10414582;28;20175;-23
2022/01/26 05:52:10;;;;;;;10.15;4.75;;;;;;;18.64;47.60;97934.53;10410624;28;20065;-24
2022/01/26 05:57:10;;;;;;;15.85;3.50;;;;;;;18.45;47.23;97924.88;10430818;28;20033;-23
2022/01/26 06:02:10;;;;;;;6.80;4.20;;;;;;;18.35;40.76;97935.69;10452683;28;20066;-23
2022/01/26 06:07:11;;;;;;;8.57;3.70;;;;;;;18.61;48.47;97950.59;10451253;28;20396;-23
2022/01/26 06:12:11;;;;;;;6.55;3.33;;;;;;;18.70;48.50;97939.75;10450245;28;20112;-23
2022/01/26 06:17:12;;;;;;;13.43;3.33;;;;;;;18.76;49.06;97934.78;10451836;28;20032;-23
2022/01/26 06:22:12;;;;;;;5.67;2.87;;;;;;;18.65;50.10;97936.25;10423098;28;20294;-21
2022/01/26 06:27:12;;;;;;;7.43;2.63;;;;;;;18.71;50.87;97929.63;10430366;28;20026;-23
2022/01/26 06:32:16;;;;;;;9.57;3.10;;;;;;;18.84;50.95;97928.16;10451230;28;20037;-24
2022/01/26 06:37:16;;;;;;;9.13;2.65;;;;;;;18.82;51.57;97934.91;10450012;28;20693;-24
2022/01/26 06:42:21;;;;;;;10.60;3.45;;;;;;;18.14;45.69;97931.00;10429302;28;20041;-23
2022/01/26 06:47:48;;;;;;;5.63;2.53;;;;;;;18.56;49.47;97954.72;10409570;28;20495;-24
2022/01/26 06:52:44;;;;;;;7.18;2.25;;;;;;;18.66;50.32;97958.28;10409531;28;20034;-24
2022/01/26 06:57:45;;;;;;;8.95;3.08;;;;;;;18.70;50.88;97960.03;10433495;28;20487;-24
2022/01/26 07:02:45;;;;;;;7.75;2.58;;;;;;;18.73;50.97;97965.16;10451415;28;20041;-23
2022/01/26 07:07:46;;;;;;;9.60;2.63;;;;;;;18.78;51.32;97968.66;10416866;28;20029;-23
2022/01/26 07:12:46;;;;;;;5.15;2.63;;;;;;;18.78;51.49;97973.72;10432504;28;20782;-23
2022/01/26 07:23:07;;;;;;;7.47;2.47;;;;;;;18.76;51.56;97966.06;10450367;28;20310;-24
2022/01/26 07:28:07;;;;;;;3.10;2.17;;;;;;;18.75;51.74;97973.69;10419850;28;20030;-23
2022/01/26 07:33:08;;;;;;;2.73;1.90;;;;;;;18.75;51.68;97978.75;10408579;28;20033;-23
2022/01/26 07:38:08;;;;;;;6.50;2.42;;;;;;;18.76;51.58;97986.38;10439944;28;20295;-23
2022/01/26 07:43:09;;;;;;;4.15;2.05;;;;;;;18.73;51.80;97993.06;10448370;28;20041;-24
2022/01/26 07:48:09;;;;;;;4.03;2.27;;;;;;;18.73;51.76;97990.53;10421445;28;20407;-23
2022/01/26 07:53:14;;;;;;;3.25;2.88;;;;;;;18.71;51.75;97985.44;10444616;28;20294;-23
2022/01/26 07:58:17;;;;;;;4.53;2.03;;;;;;;18.71;51.99;98017.56;10427366;28;20440;-22
2022/01/26 08:03:18;;;;;;;4.95;2.38;;;;;;;18.72;51.89;98031.94;10416705;28;20033;-23
2022/01/26 08:08:19;;;;;;;3.63;1.83;;;;;;;18.75;52.11;98014.28;10452203;28;20033;-26
2022/01/26 08:13:20;;;;;;;5.38;2.85;;;;;;;18.79;51.71;98036.31;10455591;28;20039;-23
2022/01/26 08:18:20;;;;;;;4.10;2.22;;;;;;;18.77;51.64;98032.91;10455229;28;20108;-23
2022/01/26 08:23:22;;;;;;;4.80;2.10;;;;;;;18.78;51.57;98049.84;10424749;28;20064;-23
2022/01/26 08:28:28;;;;;;;2.85;2.17;;;;;;;18.77;51.72;98026.13;10444260;28;20291;-23
2022/01/26 08:33:29;;;;;;;1.80;1.33;;;;;;;18.77;51.89;98045.59;10448339;28;20120;-23
2022/01/26 08:38:29;;;;;;;2.47;2.13;;;;;;;18.78;51.60;98038.03;10414894;28;20116;-23
2022/01/26 08:43:30;;;;;;;4.63;2.55;;;;;;;18.78;51.56;98040.56;10455146;28;20544;-24
2022/01/26 08:48:30;;;;;;;2.90;1.67;;;;;;;18.77;51.71;98035.44;10416955;28;20499;-24
2022/01/26 08:53:31;;;;;;;3.63;1.92;;;;;;;18.79;51.86;98042.25;10414340;28;20404;-23
2022/01/26 08:58:31;;;;;;;2.90;1.70;;;;;;;18.79;51.54;98039.72;10444171;28;20118;-23
2022/01/26 09:03:38;;;;;;;2.45;1.58;;;;;;;18.80;51.61;98049.06;10459697;28;20775;-23
2022/01/26 09:08:40;;;;;;;4.75;2.75;;;;;;;18.80;51.47;98040.56;10426899;28;20495;-23
2022/01/26 09:13:41;;;;;;;6.32;1.67;;;;;;;18.77;51.71;98045.59;10451686;28;20045;-24
2022/01/26 09:18:50;;;;;;;4.50;2.10;;;;;;;18.73;51.84;98042.13;10458705;28;20029;-24
2022/01/26 09:23:51;;;;;;;3.40;1.80;;;;;;;18.79;51.70;98066.78;10460063;28;20333;-23
2022/01/26 09:28:51;;;;;;;3.08;2.00;;;;;;;18.77;51.68;98076.03;10423899;28;20064;-23
2022/01/26 09:33:53;;;;;;;2.37;1.67;;;;;;;18.76;51.96;98081.94;10432426;28;20071;-24
2022/01/26 09:38:53;;;;;;;2.20;1.80;;;;;;;18.74;51.87;98083.59;10458229;28;20283;-23
2022/01/26 09:43:54;;;;;;;2.22;1.65;;;;;;;18.75;51.87;98110.69;10459077;28;20423;-23
2022/01/26 09:48:54;;;;;;;2.22;1.83;;;;;;;18.78;51.70;98105.66;10417357;28;20030;-23
2022/01/26 09:54:12;;;;;;;2.35;1.63;;;;;;;18.77;51.83;98086.19;10456460;28;20017;-23
2022/01/26 09:59:15;;;;;;;3.22;2.10;;;;;;;18.77;51.85;98099.72;10421380;28;20042;-23
2022/01/26 10:04:29;;;;;;;2.95;2.00;;;;;;;18.76;51.72;98113.22;10416341;28;20033;-23
2022/01/26 10:19:56;;;;;;;2.88;1.73;;;;;;;18.64;51.96;98059.72;10440155;28;20033;-23
2022/01/26 10:25:18;;;;;;;2.60;1.88;;;;;;;18.73;51.90;98056.50;10411734;28;20526;-23
2022/01/26 10:30:20;;;;;;;2.90;1.88;;;;;;;18.74;51.88;98032.84;10451896;28;20079;-23
2022/01/26 10:35:21;;;;;;;3.28;2.20;;;;;;;18.72;51.74;98035.34;10445340;28;20033;-23
2022/01/26 10:40:26;;;;;;;3.08;2.03;;;;;;;18.71;51.83;98026.03;10425493;28;20048;-23
2022/01/26 10:56:10;;;;;;;2.55;1.88;;;;;;;18.79;51.58;98021.97;10437482;28;20029;-24
2022/01/26 11:01:11;;;;;;;2.20;2.00;;;;;;;18.77;51.77;98002.47;10409831;28;20458;-23
2022/01/26 11:06:18;;;;;;;2.20;1.90;;;;;;;18.78;51.57;98010.09;10427027;28;20322;-23
2022/01/26 11:11:20;;;;;;;3.03;2.00;;;;;;;18.75;51.44;98024.41;10436070;28;20063;-23
2022/01/26 11:16:20;;;;;;;2.45;1.83;;;;;;;18.73;51.76;98020.97;10410060;28;20036;-23
2022/01/26 11:21:37;;;;;;;2.72;1.80;;;;;;;18.76;51.57;98010.91;10434431;28;20514;-23
2022/01/26 11:26:39;;;;;;;2.35;1.92;;;;;;;18.78;51.50;98009.25;10433322;28;20454;-23
2022/01/26 11:31:41;;;;;;;2.58;2.28;;;;;;;18.67;51.27;98009.03;10408159;28;20504;-23
2022/01/26 11:36:42;;;;;;;3.15;2.60;;;;;;;18.76;51.25;98005.81;10404619;28;20107;-24
2022/01/26 11:47:18;;;;;;;4.55;2.30;;;;;;;18.82;51.14;98021.19;10415288;28;20200;-24
2022/01/26 11:52:35;;;;;;;3.63;2.72;;;;;;;18.81;51.26;98014.38;10428567;28;20029;-23
2022/01/26 11:57:52;;;;;;;6.40;2.70;;;;;;;18.84;51.06;98006.81;10438244;28;20124;-23
2022/01/26 12:02:56;;;;;;;;;;;;;;;18.66;50.57;98001.41;10434677;28;20038;-23
2022/01/26 12:07:59;;;;;;;4.50;3.78;;;;;;;18.80;50.39;98007.59;10443420;28;19952;-23
2022/01/26 12:13:09;;;;;;;5.53;3.38;;;;;;;18.80;50.68;98007.59;10448820;28;20052;-24
2022/01/26 12:34:48;;;;;;;;;;;;;;;18.76;50.57;98013.44;10422795;28;20084;-24
2022/01/26 12:45:25;;;;;;;5.10;3.47;;;;;;;18.87;50.44;98042.41;10419306;28;20977;-24
2022/01/26 12:50:27;;;;;;;8.02;3.28;;;;;;;18.92;50.50;98041.66;10402767;28;20068;-22
2022/01/26 12:55:31;;;;;;;5.78;2.97;;;;;;;18.91;50.53;98021.34;10396489;28;20529;-23
2022/01/26 13:00:41;;;;;;;6.07;3.25;;;;;;;18.85;50.79;98006.84;10392294;28;20037;-23
2022/01/26 13:05:42;;;;;;;3.78;3.47;;;;;;;18.81;50.92;97997.47;10435069;28;20036;-23
2022/01/26 13:10:42;;;;;;;5.45;3.00;;;;;;;18.81;51.00;97989.00;10453269;28;20056;-23
2022/01/26 13:16:03;;;;;;;8.07;3.58;;;;;;;18.80;50.72;97984.75;10439037;28;20053;-23
2022/01/26 13:26:29;;;;;;;3.08;2.78;;;;;;;18.77;51.13;97998.22;10413811;28;20032;-23
2022/01/26 13:36:50;;;;;;;5.80;3.80;;;;;;;18.78;50.95;97983.88;10399626;28;20044;-23
2022/01/26 13:57:14;;;;;;;5.78;3.92;;;;;;;18.76;50.99;97961.00;10433801;28;20040;-23
2022/01/26 14:02:14;;;;;;;;;;;;;;;18.77;50.41;97972.84;10412763;28;20077;-23
2022/01/26 14:07:16;;;;;;;7.33;4.90;;;;;;;18.76;50.73;97981.28;10404721;28;19912;-23
2022/01/26 14:12:22;;;;;;;8.65;4.38;;;;;;;18.80;50.62;97972.06;10430503;28;20341;-23
2022/01/26 14:27:52;;;;;;;;;;;;;;;18.84;51.05;97994.13;10425325;28;20516;-22
2022/01/26 15:42:46;;;;;;;6.82;4.32;;;;;;;19.51;50.65;98027.53;10448497;28;20033;-22
2022/01/26 15:53:22;;;;;;;5.85;3.88;;;;;;;19.51;51.13;98053.78;10408751;28;20041;-22
2022/01/26 15:58:51;;;;;;;8.32;4.10;;;;;;;19.57;50.99;98053.03;10400026;28;20467;-22
2022/01/26 16:36:07;;;;;;;13.15;5.72;;;;;;;19.61;51.18;98037.03;10430990;28;20044;-21
2022/01/26 17:02:37;;;;;;;5.97;4.68;;;;;;;19.27;52.15;98081.28;10454330;28;20112;-22
2022/01/26 18:16:58;;;;;;;5.38;4.22;;;;;;;19.04;51.89;97995.34;10398575;28;20052;-22
2022/01/26 18:32:41;;;;;;;7.97;4.65;;;;;;;18.98;52.55;98002.84;10421723;28;20040;-22
2022/01/26 18:53:38;;;;;;;8.95;4.18;;;;;;;19.01;53.03;98023.22;10420169;28;20045;-22
2022/01/26 18:58:38;;;;;;;12.97;5.00;;;;;;;19.00;52.76;98031.66;10388137;28;20042;-22
2022/01/26 19:03:39;;;;;;;9.93;5.77;;;;;;;18.98;52.93;98035.84;10371944;28;20284;-22
2022/01/26 19:08:41;;;;;;;8.90;4.70;;;;;;;18.97;52.91;98029.06;10376601;28;20404;-23
2022/01/26 19:13:45;;;;;;;11.30;5.30;;;;;;;19.03;52.61;98030.06;10374513;28;20056;-22
2022/01/26 19:24:05;;;;;;;8.45;4.57;;;;;;;19.08;52.43;98030.97;10369400;28;20041;-21
2022/01/26 19:29:46;;;;;;;9.25;4.63;;;;;;;19.10;52.26;98019.16;10369244;28;20066;-22
2022/01/26 19:45:21;;;;;;;7.53;4.30;;;;;;;19.16;51.60;98019.28;10377097;28;20049;-22
2022/01/26 19:55:41;;;;;;;6.35;4.32;;;;;;;19.11;51.97;98036.13;10388369;28;20079;-22
2022/01/26 20:00:44;;;;;;;5.35;4.13;;;;;;;19.04;51.88;98025.81;10379744;28;20121;-22
2022/01/26 20:05:45;;;;;;;5.82;3.97;;;;;;;19.11;51.65;98025.09;10393713;28;20089;-23
2022/01/26 20:10:53;;;;;;;6.75;4.63;;;;;;;19.03;51.79;98016.50;10383687;28;20557;-22
2022/01/26 20:15:53;;;;;;;8.95;3.88;;;;;;;19.11;51.45;98020.03;10379463;28;20038;-22
2022/01/26 20:20:58;;;;;;;9.15;4.15;;;;;;;19.03;51.35;98011.41;10408068;28;20378;-23
2022/01/26 20:26:01;;;;;;;7.30;4.10;;;;;;;19.06;52.01;98006.38;10382764;28;20025;-22
2022/01/26 20:31:04;;;;;;;6.80;4.00;;;;;;;19.04;51.96;98006.38;10374617;28;20033;-22
2022/01/26 20:36:05;;;;;;;7.90;3.70;;;;;;;19.12;51.71;98002.28;10392707;28;20459;-22
2022/01/26 20:41:05;;;;;;;5.82;3.97;;;;;;;19.12;51.64;98006.50;10419017;28;20049;-22
2022/01/26 20:46:07;;;;;;;4.38;3.70;;;;;;;19.09;51.76;98002.22;10404488;28;20068;-22
2022/01/26 20:51:07;;;;;;;6.35;4.15;;;;;;;19.07;51.73;98005.53;10396944;28;20037;-23
2022/01/26 20:56:08;;;;;;;5.18;3.90;;;;;;;19.04;52.09;97992.81;10400224;28;20025;-22
2022/01/26 21:01:08;;;;;;;12.90;6.28;;;;;;;19.09;50.31;97992.06;10367936;28;20627;-22
2022/01/26 21:06:08;;;;;;;9.57;4.30;;;;;;;19.07;51.96;97988.66;10380020;28;20121;-22
2022/01/26 21:11:09;;;;;;;10.82;4.38;;;;;;;19.08;51.85;97990.34;10377489;28;20041;-22
2022/01/26 21:16:10;;;;;;;9.85;4.72;;;;;;;19.06;51.77;97986.06;10377858;28;20092;-22
2022/01/26 21:21:10;;;;;;;5.97;4.60;;;;;;;18.99;52.07;97985.13;10416536;28;20099;-22
2022/01/26 21:26:11;;;;;;;5.93;3.67;;;;;;;19.03;51.67;97983.50;10425350;28;20288;-22
2022/01/26 21:31:11;;;;;;;8.63;4.60;;;;;;;18.99;51.78;97984.28;10409282;28;20076;-22
2022/01/26 21:36:13;;;;;;;6.03;4.10;;;;;;;18.95;51.55;97987.56;10421488;28;20297;-22
2022/01/26 21:41:18;;;;;;;8.77;5.40;;;;;;;18.97;52.12;97988.44;10411426;28;20029;-22
2022/01/26 21:46:18;;;;;;;10.40;4.43;;;;;;;18.98;52.38;97977.47;10453426;28;20037;-22
2022/01/26 21:51:19;;;;;;;6.33;4.00;;;;;;;18.87;52.48;97958.66;10430643;28;20448;-22
2022/01/26 21:56:20;;;;;;;9.23;3.78;;;;;;;18.93;52.59;97974.84;10422560;28;20295;-22
2022/01/26 22:01:21;;;;;;;6.22;4.10;;;;;;;18.95;52.83;97982.50;10452670;28;20029;-22
2022/01/26 22:06:22;;;;;;;7.93;4.05;;;;;;;18.93;52.76;97984.16;10423187;28;20083;-23
2022/01/26 22:11:22;;;;;;;8.93;4.33;;;;;;;18.97;52.55;97978.28;10423159;28;20056;-22
2022/01/26 22:16:23;;;;;;;7.97;4.50;;;;;;;18.91;52.58;97973.13;10452916;28;20029;-22
2022/01/26 22:21:30;;;;;;;7.38;4.38;;;;;;;18.90;53.00;97976.47;10429546;28;20044;-22
2022/01/26 22:26:33;;;;;;;8.77;4.32;;;;;;;18.89;53.08;97972.22;10410917;28;20470;-22
2022/01/26 22:31:34;;;;;;;6.25;4.20;;;;;;;18.84;52.84;97963.69;10410485;28;20037;-22
2022/01/26 22:36:34;;;;;;;7.93;3.97;;;;;;;18.85;53.19;97965.41;10406243;28;20029;-22
2022/01/26 22:41:35;;;;;;;9.07;3.77;;;;;;;18.86;53.17;97972.19;10421923;28;20037;-22
2022/01/26 22:46:35;;;;;;;6.90;3.60;;;;;;;18.85;53.12;97966.22;10451293;28;20279;-23
2022/01/26 22:51:36;;;;;;;6.03;3.88;;;;;;;18.74;53.19;97942.34;10420490;28;20284;-22
2022/01/26 22:56:37;;;;;;;6.75;3.92;;;;;;;18.79;53.25;97953.47;10423990;28;20543;-22
2022/01/26 23:06:38;;;;;;;9.35;3.85;;;;;;;18.81;53.08;97953.47;10449395;28;20525;-22
2022/01/26 23:11:39;;;;;;;8.43;3.80;;;;;;;18.87;52.69;97953.59;10433503;28;20459;-22
2022/01/26 23:16:40;;;;;;;7.22;3.97;;;;;;;18.87;52.91;97941.78;10409052;28;20045;-22
2022/01/26 23:21:40;;;;;;;5.90;4.00;;;;;;;18.76;53.00;97925.47;10443644;28;20449;-22
2022/01/26 23:26:46;;;;;;;6.97;3.53;;;;;;;18.87;52.91;97938.38;10432893;28;20044;-22
2022/01/26 23:58:19;;;;;;;8.27;3.83;;;;;;;18.82;52.93;97899.38;10420926;28;20565;-23
